sensor_id;sensor_type;location;lat;lon;timestamp;pressure;altitude;pressure_sealevel;temperature;humidity
60049;BME280;66154;45.544;6.756;2023-01-26T00:03:58;86938.75;;;-6.68;73.87
60049;BME280;66154;45.544;6.756;2023-01-26T00:08:59;86931.44;;;-6.94;73.72
60049;BME280;66154;45.544;6.756;2023-01-26T00:13:59;86929.28;;;-6.66;73.89
60049;BME280;66154;45.544;6.756;2023-01-26T00:19:00;86926.00;;;-6.90;76.86
60049;BME280;66154;45.544;6.756;2023-01-26T00:24:01;86910.56;;;-6.87;78.06
60049;BME280;66154;45.544;6.756;2023-01-26T00:29:03;86913.41;;;-6.96;82.53
60049;BME280;66154;45.544;6.756;2023-01-26T00:34:04;86907.09;;;-7.10;85.16
60049;BME280;66154;45.544;6.756;2023-01-26T00:39:05;86911.13;;;-7.51;86.48
60049;BME280;66154;45.544;6.756;2023-01-26T00:44:05;86903.06;;;-7.11;80.05
60049;BME280;66154;45.544;6.756;2023-01-26T00:49:06;86885.34;;;-7.21;78.51
60049;BME280;66154;45.544;6.756;2023-01-26T00:54:06;86879.50;;;-7.57;78.75
60049;BME280;66154;45.544;6.756;2023-01-26T00:59:07;86875.25;;;-6.79;72.95
60049;BME280;66154;45.544;6.756;2023-01-26T01:04:08;86892.66;;;-8.11;78.30
60049;BME280;66154;45.544;6.756;2023-01-26T01:09:08;86875.31;;;-7.45;75.18
60049;BME280;66154;45.544;6.756;2023-01-26T01:14:09;86873.06;;;-7.77;76.65
60049;BME280;66154;45.544;6.756;2023-01-26T01:19:13;86864.47;;;-7.39;73.71
60049;BME280;66154;45.544;6.756;2023-01-26T01:24:14;86854.09;;;-7.96;79.54
60049;BME280;66154;45.544;6.756;2023-01-26T01:29:15;86854.69;;;-8.13;78.82
60049;BME280;66154;45.544;6.756;2023-01-26T01:34:16;86846.16;;;-7.63;77.42
60049;BME280;66154;45.544;6.756;2023-01-26T01:39:16;86840.34;;;-7.45;77.97
60049;BME280;66154;45.544;6.756;2023-01-26T01:44:19;86855.34;;;-7.45;81.95
60049;BME280;66154;45.544;6.756;2023-01-26T01:54:42;86830.25;;;-7.26;81.75
60049;BME280;66154;45.544;6.756;2023-01-26T01:59:49;86813.19;;;-7.30;77.36
60049;BME280;66154;45.544;6.756;2023-01-26T02:04:54;86799.53;;;-7.39;74.32
60049;BME280;66154;45.544;6.756;2023-01-26T02:09:58;86793.53;;;-7.14;71.93
60049;BME280;66154;45.544;6.756;2023-01-26T02:15:17;86795.72;;;-7.06;70.80
60049;BME280;66154;45.544;6.756;2023-01-26T02:20:32;86782.13;;;-7.22;73.43
60049;BME280;66154;45.544;6.756;2023-01-26T02:25:40;86789.25;;;-8.27;79.33
60049;BME280;66154;45.544;6.756;2023-01-26T02:30:44;86772.56;;;-7.60;76.43
60049;BME280;66154;45.544;6.756;2023-01-26T02:35:45;86769.53;;;-7.62;74.57
60049;BME280;66154;45.544;6.756;2023-01-26T02:40:54;86768.72;;;-7.87;78.17
60049;BME280;66154;45.544;6.756;2023-01-26T02:45:55;86760.84;;;-7.72;76.68
60049;BME280;66154;45.544;6.756;2023-01-26T02:50:55;86743.69;;;-7.80;75.29
60049;BME280;66154;45.544;6.756;2023-01-26T02:55:56;86724.03;;;-7.65;73.26
60049;BME280;66154;45.544;6.756;2023-01-26T03:00:56;86728.06;;;-7.40;72.49
60049;BME280;66154;45.544;6.756;2023-01-26T03:05:57;86727.09;;;-7.86;76.31
60049;BME280;66154;45.544;6.756;2023-01-26T03:10:58;86741.13;;;-8.15;79.80
60049;BME280;66154;45.544;6.756;2023-01-26T03:15:59;86744.13;;;-8.37;81.10
60049;BME280;66154;45.544;6.756;2023-01-26T03:21:15;86728.47;;;-8.02;80.04
60049;BME280;66154;45.544;6.756;2023-01-26T03:26:35;86725.59;;;-8.29;80.04
60049;BME280;66154;45.544;6.756;2023-01-26T03:31:54;86711.19;;;-8.15;76.09
60049;BME280;66154;45.544;6.756;2023-01-26T03:36:55;86706.03;;;-8.02;73.75
60049;BME280;66154;45.544;6.756;2023-01-26T03:41:55;86712.53;;;-7.77;72.38
60049;BME280;66154;45.544;6.756;2023-01-26T03:47:14;86715.19;;;-8.26;77.30
60049;BME280;66154;45.544;6.756;2023-01-26T03:52:34;86709.75;;;-8.47;79.10
60049;BME280;66154;45.544;6.756;2023-01-26T03:57:53;86722.47;;;-9.16;87.01
60049;BME280;66154;45.544;6.756;2023-01-26T04:02:53;86723.22;;;-8.24;82.21
60049;BME280;66154;45.544;6.756;2023-01-26T04:08:12;86726.38;;;-8.17;81.55
60049;BME280;66154;45.544;6.756;2023-01-26T04:13:28;86733.03;;;-8.53;90.54
60049;BME280;66154;45.544;6.756;2023-01-26T04:18:47;86718.47;;;-8.14;86.79
60049;BME280;66154;45.544;6.756;2023-01-26T04:24:07;86704.97;;;-8.37;84.57
60049;BME280;66154;45.544;6.756;2023-01-26T04:29:14;86711.63;;;-8.19;81.18
60049;BME280;66154;45.544;6.756;2023-01-26T04:34:15;86716.28;;;-8.22;78.68
60049;BME280;66154;45.544;6.756;2023-01-26T04:39:15;86719.09;;;-8.30;80.71
60049;BME280;66154;45.544;6.756;2023-01-26T04:44:16;86720.16;;;-8.26;83.18
60049;BME280;66154;45.544;6.756;2023-01-26T04:49:17;86720.63;;;-8.29;83.22
60049;BME280;66154;45.544;6.756;2023-01-26T04:54:17;86719.44;;;-8.15;79.84
60049;BME280;66154;45.544;6.756;2023-01-26T04:59:18;86725.09;;;-8.08;79.62
60049;BME280;66154;45.544;6.756;2023-01-26T05:04:18;86707.91;;;-8.40;81.57
60049;BME280;66154;45.544;6.756;2023-01-26T05:09:19;86706.00;;;-8.68;86.13
60049;BME280;66154;45.544;6.756;2023-01-26T05:14:19;86696.63;;;-8.30;87.09
60049;BME280;66154;45.544;6.756;2023-01-26T05:19:20;86697.16;;;-8.82;90.86
60049;BME280;66154;45.544;6.756;2023-01-26T05:24:20;86705.78;;;-8.66;91.96
60049;BME280;66154;45.544;6.756;2023-01-26T05:29:21;86700.41;;;-8.40;90.20
60049;BME280;66154;45.544;6.756;2023-01-26T05:34:21;86692.00;;;-8.15;87.56
60049;BME280;66154;45.544;6.756;2023-01-26T05:39:22;86694.13;;;-8.84;90.24
60049;BME280;66154;45.544;6.756;2023-01-26T05:44:23;86692.16;;;-8.94;92.38
60049;BME280;66154;45.544;6.756;2023-01-26T05:49:26;86677.44;;;-8.42;90.18
60049;BME280;66154;45.544;6.756;2023-01-26T05:54:27;86680.81;;;-8.24;85.78
60049;BME280;66154;45.544;6.756;2023-01-26T05:59:27;86668.06;;;-9.49;89.95
60049;BME280;66154;45.544;6.756;2023-01-26T06:04:28;86664.31;;;-8.61;87.14
60049;BME280;66154;45.544;6.756;2023-01-26T06:09:29;86665.72;;;-8.41;83.69
60049;BME280;66154;45.544;6.756;2023-01-26T06:14:29;86670.59;;;-9.37;87.35
60049;BME280;66154;45.544;6.756;2023-01-26T06:19:30;86682.63;;;-9.71;92.59
60049;BME280;66154;45.544;6.756;2023-01-26T06:24:30;86677.44;;;-8.84;87.81
60049;BME280;66154;45.544;6.756;2023-01-26T06:29:32;86674.66;;;-8.76;83.99
60049;BME280;66154;45.544;6.756;2023-01-26T06:34:33;86668.81;;;-9.00;83.54
60049;BME280;66154;45.544;6.756;2023-01-26T06:39:33;86660.91;;;-9.08;83.93
60049;BME280;66154;45.544;6.756;2023-01-26T06:44:34;86660.03;;;-9.02;84.96
60049;BME280;66154;45.544;6.756;2023-01-26T06:49:34;86642.56;;;-8.84;81.89
60049;BME280;66154;45.544;6.756;2023-01-26T06:54:35;86654.44;;;-8.67;82.78
60049;BME280;66154;45.544;6.756;2023-01-26T06:59:35;86653.25;;;-8.95;83.87
60049;BME280;66154;45.544;6.756;2023-01-26T07:04:36;86658.16;;;-9.74;88.74
60049;BME280;66154;45.544;6.756;2023-01-26T07:09:36;86662.59;;;-9.39;84.64
60049;BME280;66154;45.544;6.756;2023-01-26T07:14:37;86670.16;;;-9.16;84.88
60049;BME280;66154;45.544;6.756;2023-01-26T07:19:37;86653.56;;;-8.61;82.82
60049;BME280;66154;45.544;6.756;2023-01-26T07:24:38;86659.50;;;-9.04;88.22
60049;BME280;66154;45.544;6.756;2023-01-26T07:29:39;86664.44;;;-9.53;91.20
60049;BME280;66154;45.544;6.756;2023-01-26T07:34:39;86664.44;;;-9.16;88.06
60049;BME280;66154;45.544;6.756;2023-01-26T07:39:40;86667.84;;;-9.66;88.76
60049;BME280;66154;45.544;6.756;2023-01-26T07:44:40;86667.09;;;-9.67;91.64
60049;BME280;66154;45.544;6.756;2023-01-26T07:49:41;86659.56;;;-9.78;90.58
60049;BME280;66154;45.544;6.756;2023-01-26T07:54:41;86656.97;;;-9.53;90.97
60049;BME280;66154;45.544;6.756;2023-01-26T07:59:42;86657.47;;;-9.63;89.77
60049;BME280;66154;45.544;6.756;2023-01-26T08:04:43;86649.78;;;-9.24;89.45
60049;BME280;66154;45.544;6.756;2023-01-26T08:09:43;86654.84;;;-9.01;86.74
60049;BME280;66154;45.544;6.756;2023-01-26T08:14:44;86656.66;;;-9.57;88.35
60049;BME280;66154;45.544;6.756;2023-01-26T08:19:46;86663.00;;;-9.42;88.50
60049;BME280;66154;45.544;6.756;2023-01-26T08:24:46;86655.28;;;-8.73;84.23
60049;BME280;66154;45.544;6.756;2023-01-26T08:29:47;86660.84;;;-8.90;85.69
60049;BME280;66154;45.544;6.756;2023-01-26T08:34:49;86648.16;;;-8.88;86.37
60049;BME280;66154;45.544;6.756;2023-01-26T08:39:49;86634.50;;;-8.32;82.69
60049;BME280;66154;45.544;6.756;2023-01-26T08:44:50;86639.63;;;-8.81;82.32
60049;BME280;66154;45.544;6.756;2023-01-26T08:49:51;86637.78;;;-8.43;82.83
60049;BME280;66154;45.544;6.756;2023-01-26T08:54:52;86632.88;;;-8.38;83.48
60049;BME280;66154;45.544;6.756;2023-01-26T08:59:52;86629.41;;;-8.61;82.32
60049;BME280;66154;45.544;6.756;2023-01-26T09:04:53;86622.66;;;-9.02;81.62
60049;BME280;66154;45.544;6.756;2023-01-26T09:09:53;86620.59;;;-8.63;78.89
60049;BME280;66154;45.544;6.756;2023-01-26T09:14:54;86615.63;;;-8.75;81.33
60049;BME280;66154;45.544;6.756;2023-01-26T09:19:54;86626.06;;;-7.95;75.14
60049;BME280;66154;45.544;6.756;2023-01-26T09:24:55;86615.25;;;-8.90;76.58
60049;BME280;66154;45.544;6.756;2023-01-26T09:29:56;86619.44;;;-7.90;75.06
60049;BME280;66154;45.544;6.756;2023-01-26T09:34:56;86629.75;;;-7.86;78.30
60049;BME280;66154;45.544;6.756;2023-01-26T09:39:57;86619.13;;;-8.29;81.01
60049;BME280;66154;45.544;6.756;2023-01-26T09:50:18;86609.22;;;-7.88;76.85
60049;BME280;66154;45.544;6.756;2023-01-26T09:55:21;86611.91;;;-7.66;77.02
60049;BME280;66154;45.544;6.756;2023-01-26T10:00:30;86601.09;;;-7.31;74.75
60049;BME280;66154;45.544;6.756;2023-01-26T10:05:44;86598.94;;;-8.04;79.19
60049;BME280;66154;45.544;6.756;2023-01-26T10:10:57;86587.38;;;-7.57;78.31
60049;BME280;66154;45.544;6.756;2023-01-26T10:16:03;86590.19;;;-7.13;74.84
60049;BME280;66154;45.544;6.756;2023-01-26T10:21:06;86585.19;;;-7.42;76.30
60049;BME280;66154;45.544;6.756;2023-01-26T10:26:16;86581.59;;;-7.17;74.37
60049;BME280;66154;45.544;6.756;2023-01-26T10:31:23;86577.75;;;-6.96;80.30
60049;BME280;66154;45.544;6.756;2023-01-26T10:36:28;86566.16;;;-6.85;82.42
60049;BME280;66154;45.544;6.756;2023-01-26T10:41:29;86574.13;;;-7.17;85.68
60049;BME280;66154;45.544;6.756;2023-01-26T10:51:43;86569.66;;;-6.86;87.55
60049;BME280;66154;45.544;6.756;2023-01-26T11:01:59;86557.78;;;-6.45;85.32
60049;BME280;66154;45.544;6.756;2023-01-26T11:07:24;86563.25;;;-5.70;81.84
60049;BME280;66154;45.544;6.756;2023-01-26T11:12:27;86559.19;;;-5.93;85.81
60049;BME280;66154;45.544;6.756;2023-01-26T11:23:02;86547.56;;;-5.83;80.32
60049;BME280;66154;45.544;6.756;2023-01-26T11:28:18;86544.97;;;-5.93;81.56
60049;BME280;66154;45.544;6.756;2023-01-26T11:38:49;86534.06;;;-4.88;78.60
60049;BME280;66154;45.544;6.756;2023-01-26T11:54:55;86554.69;;;-7.15;88.36
60049;BME280;66154;45.544;6.756;2023-01-26T12:00:19;86537.28;;;-5.20;79.39
60049;BME280;66154;45.544;6.756;2023-01-26T12:05:45;86537.84;;;-6.23;85.60
60049;BME280;66154;45.544;6.756;2023-01-26T12:16:06;86527.88;;;-6.18;83.55
60049;BME280;66154;45.544;6.756;2023-01-26T12:21:12;86525.88;;;-5.77;82.17
60049;BME280;66154;45.544;6.756;2023-01-26T12:26:20;86508.19;;;-5.43;79.19
60049;BME280;66154;45.544;6.756;2023-01-26T12:31:54;86515.84;;;-5.05;75.72
60049;BME280;66154;45.544;6.756;2023-01-26T12:37:46;86514.13;;;-5.27;79.83
60049;BME280;66154;45.544;6.756;2023-01-26T12:43:11;86510.84;;;-4.73;76.46
60049;BME280;66154;45.544;6.756;2023-01-26T12:48:45;86510.09;;;-4.74;75.72
60049;BME280;66154;45.544;6.756;2023-01-26T12:54:20;86517.28;;;-4.55;75.25
60049;BME280;66154;45.544;6.756;2023-01-26T12:59:35;86504.47;;;-4.86;77.50
60049;BME280;66154;45.544;6.756;2023-01-26T13:04:45;86512.75;;;-6.79;86.68
60049;BME280;66154;45.544;6.756;2023-01-26T13:15:18;86508.38;;;-5.28;81.08
60049;BME280;66154;45.544;6.756;2023-01-26T13:20:46;86516.81;;;-6.22;83.20
60049;BME280;66154;45.544;6.756;2023-01-26T13:26:19;86512.75;;;-4.58;76.98
60049;BME280;66154;45.544;6.756;2023-01-26T13:31:34;86511.06;;;-5.34;82.23
60049;BME280;66154;45.544;6.756;2023-01-26T13:36:37;86515.44;;;-5.91;84.18
60049;BME280;66154;45.544;6.756;2023-01-26T13:41:46;86519.81;;;-5.81;82.69
60049;BME280;66154;45.544;6.756;2023-01-26T13:46:54;86515.94;;;-4.95;77.75
60049;BME280;66154;45.544;6.756;2023-01-26T13:52:23;86519.22;;;-6.10;85.04
60049;BME280;66154;45.544;6.756;2023-01-26T13:57:29;86530.94;;;-6.50;83.84
60049;BME280;66154;45.544;6.756;2023-01-26T14:02:33;86528.56;;;-5.84;82.70
60049;BME280;66154;45.544;6.756;2023-01-26T14:07:37;86526.88;;;-5.95;83.53
60049;BME280;66154;45.544;6.756;2023-01-26T14:12:45;86521.06;;;-6.23;86.69
60049;BME280;66154;45.544;6.756;2023-01-26T14:18:13;86522.59;;;-6.89;90.04
60049;BME280;66154;45.544;6.756;2023-01-26T14:23:16;86531.56;;;-6.60;87.57
60049;BME280;66154;45.544;6.756;2023-01-26T14:28:22;86523.31;;;-7.23;90.53
60049;BME280;66154;45.544;6.756;2023-01-26T14:33:27;86528.06;;;-6.93;89.43
60049;BME280;66154;45.544;6.756;2023-01-26T14:38:38;86530.53;;;-7.10;88.23
60049;BME280;66154;45.544;6.756;2023-01-26T14:43:39;86531.06;;;-6.23;85.87
60049;BME280;66154;45.544;6.756;2023-01-26T14:48:51;86536.63;;;-5.76;79.78
60049;BME280;66154;45.544;6.756;2023-01-26T14:53:56;86531.28;;;-5.85;79.36
60049;BME280;66154;45.544;6.756;2023-01-26T14:58:58;86531.91;;;-7.02;87.62
60049;BME280;66154;45.544;6.756;2023-01-26T15:09:26;86535.31;;;-6.74;85.04
60049;BME280;66154;45.544;6.756;2023-01-26T15:19:40;86531.69;;;-6.49;82.65
60049;BME280;66154;45.544;6.756;2023-01-26T15:24:41;86526.16;;;-6.34;83.51
60049;BME280;66154;45.544;6.756;2023-01-26T15:29:44;86518.72;;;-6.63;84.47
60049;BME280;66154;45.544;6.756;2023-01-26T15:34:44;86528.50;;;-6.96;86.82
60049;BME280;66154;45.544;6.756;2023-01-26T15:39:45;86526.78;;;-6.78;84.18
60049;BME280;66154;45.544;6.756;2023-01-26T15:44:46;86525.59;;;-7.21;87.04
60049;BME280;66154;45.544;6.756;2023-01-26T15:49:46;86526.56;;;-6.60;82.86
60049;BME280;66154;45.544;6.756;2023-01-26T15:54:47;86521.00;;;-6.96;82.44
60049;BME280;66154;45.544;6.756;2023-01-26T15:59:49;86533.75;;;-6.80;83.72
60049;BME280;66154;45.544;6.756;2023-01-26T16:04:49;86527.81;;;-7.37;84.28
60049;BME280;66154;45.544;6.756;2023-01-26T16:09:50;86537.41;;;-7.86;87.28
60049;BME280;66154;45.544;6.756;2023-01-26T16:14:51;86537.88;;;-7.60;84.87
60049;BME280;66154;45.544;6.756;2023-01-26T16:19:52;86540.47;;;-7.55;86.84
60049;BME280;66154;45.544;6.756;2023-01-26T16:24:52;86539.78;;;-6.76;83.34
60049;BME280;66154;45.544;6.756;2023-01-26T16:29:53;86543.97;;;-6.65;81.75
60049;BME280;66154;45.544;6.756;2023-01-26T16:34:53;86545.63;;;-6.87;84.13
60049;BME280;66154;45.544;6.756;2023-01-26T16:39:54;86542.66;;;-7.30;84.04
60049;BME280;66154;45.544;6.756;2023-01-26T16:44:55;86550.47;;;-7.26;83.34
60049;BME280;66154;45.544;6.756;2023-01-26T16:49:55;86545.59;;;-7.33;86.17
60049;BME280;66154;45.544;6.756;2023-01-26T16:54:56;86550.00;;;-6.95;81.60
60049;BME280;66154;45.544;6.756;2023-01-26T16:59:56;86556.50;;;-7.92;85.29
60049;BME280;66154;45.544;6.756;2023-01-26T17:04:57;86563.25;;;-8.04;87.75
60049;BME280;66154;45.544;6.756;2023-01-26T17:09:58;86564.03;;;-7.22;81.56
60049;BME280;66154;45.544;6.756;2023-01-26T17:14:58;86558.00;;;-7.67;83.97
60049;BME280;66154;45.544;6.756;2023-01-26T17:20:00;86558.69;;;-7.43;83.22
60049;BME280;66154;45.544;6.756;2023-01-26T17:25:00;86563.78;;;-7.78;86.51
60049;BME280;66154;45.544;6.756;2023-01-26T17:30:02;86553.63;;;-7.60;83.83
60049;BME280;66154;45.544;6.756;2023-01-26T17:35:04;86561.97;;;-7.54;84.28
60049;BME280;66154;45.544;6.756;2023-01-26T17:40:05;86565.00;;;-7.52;83.30
60049;BME280;66154;45.544;6.756;2023-01-26T17:45:07;86562.59;;;-6.89;80.10
60049;BME280;66154;45.544;6.756;2023-01-26T17:50:09;86563.59;;;-7.60;83.00
60049;BME280;66154;45.544;6.756;2023-01-26T17:55:10;86546.19;;;-7.14;79.00
60049;BME280;66154;45.544;6.756;2023-01-26T18:00:11;86554.56;;;-7.20;79.41
60049;BME280;66154;45.544;6.756;2023-01-26T18:05:12;86547.63;;;-7.18;79.08
60049;BME280;66154;45.544;6.756;2023-01-26T18:10:14;86559.66;;;-7.85;83.00
60049;BME280;66154;45.544;6.756;2023-01-26T18:15:15;86563.25;;;-8.04;85.60
60049;BME280;66154;45.544;6.756;2023-01-26T18:20:16;86562.19;;;-8.08;86.36
60049;BME280;66154;45.544;6.756;2023-01-26T18:25:17;86544.81;;;-7.22;79.96
60049;BME280;66154;45.544;6.756;2023-01-26T18:30:19;86544.50;;;-7.25;79.57
60049;BME280;66154;45.544;6.756;2023-01-26T18:35:20;86553.16;;;-7.57;82.03
60049;BME280;66154;45.544;6.756;2023-01-26T18:40:21;86557.06;;;-7.20;79.29
60049;BME280;66154;45.544;6.756;2023-01-26T18:45:23;86555.13;;;-7.18;78.74
60049;BME280;66154;45.544;6.756;2023-01-26T18:50:23;86550.88;;;-7.18;78.84
60049;BME280;66154;45.544;6.756;2023-01-26T18:55:24;86542.72;;;-7.13;77.76
60049;BME280;66154;45.544;6.756;2023-01-26T19:00:25;86543.31;;;-7.06;77.43
60049;BME280;66154;45.544;6.756;2023-01-26T19:05:26;86538.69;;;-7.14;76.81
60049;BME280;66154;45.544;6.756;2023-01-26T19:10:27;86544.13;;;-7.17;76.28
60049;BME280;66154;45.544;6.756;2023-01-26T19:15:28;86535.69;;;-7.28;75.10
60049;BME280;66154;45.544;6.756;2023-01-26T19:20:29;86530.78;;;-7.52;75.50
60049;BME280;66154;45.544;6.756;2023-01-26T19:25:29;86539.59;;;-8.02;79.37
60049;BME280;66154;45.544;6.756;2023-01-26T19:30:33;86541.59;;;-8.27;79.87
60049;BME280;66154;45.544;6.756;2023-01-26T19:35:37;86542.88;;;-8.25;79.28
60049;BME280;66154;45.544;6.756;2023-01-26T19:40:38;86544.72;;;-8.32;78.66
60049;BME280;66154;45.544;6.756;2023-01-26T19:45:39;86536.84;;;-7.88;75.98
60049;BME280;66154;45.544;6.756;2023-01-26T19:50:40;86528.34;;;-7.63;75.66
60049;BME280;66154;45.544;6.756;2023-01-26T19:55:40;86523.94;;;-7.73;76.06
60049;BME280;66154;45.544;6.756;2023-01-26T20:00:41;86515.94;;;-7.58;75.95
60049;BME280;66154;45.544;6.756;2023-01-26T20:05:41;86534.72;;;-7.56;76.89
60049;BME280;66154;45.544;6.756;2023-01-26T20:10:42;86523.41;;;-7.87;78.55
60049;BME280;66154;45.544;6.756;2023-01-26T20:15:43;86526.09;;;-8.29;81.15
60049;BME280;66154;45.544;6.756;2023-01-26T20:20:48;86517.38;;;-7.62;77.36
60049;BME280;66154;45.544;6.756;2023-01-26T20:25:48;86523.06;;;-7.79;78.05
60049;BME280;66154;45.544;6.756;2023-01-26T20:30:50;86515.41;;;-7.60;77.21
60049;BME280;66154;45.544;6.756;2023-01-26T20:35:52;86535.09;;;-7.76;78.04
60049;BME280;66154;45.544;6.756;2023-01-26T20:40:53;86537.75;;;-8.06;79.18
60049;BME280;66154;45.544;6.756;2023-01-26T20:45:53;86535.88;;;-7.75;78.33
60049;BME280;66154;45.544;6.756;2023-01-26T20:50:54;86538.41;;;-7.58;76.73
60049;BME280;66154;45.544;6.756;2023-01-26T20:55:58;86534.97;;;-7.69;77.04
60049;BME280;66154;45.544;6.756;2023-01-26T21:01:03;86525.09;;;-8.28;77.51
60049;BME280;66154;45.544;6.756;2023-01-26T21:06:06;86526.56;;;-7.80;76.08
60049;BME280;66154;45.544;6.756;2023-01-26T21:11:11;86516.97;;;-8.24;77.40
60049;BME280;66154;45.544;6.756;2023-01-26T21:16:14;86516.13;;;-8.29;75.17
60049;BME280;66154;45.544;6.756;2023-01-26T21:21:15;86518.47;;;-7.99;73.36
60049;BME280;66154;45.544;6.756;2023-01-26T21:26:21;86515.47;;;-8.37;75.05
60049;BME280;66154;45.544;6.756;2023-01-26T21:31:23;86509.66;;;-8.02;73.98
60049;BME280;66154;45.544;6.756;2023-01-26T21:36:26;86500.13;;;-7.93;73.87
60049;BME280;66154;45.544;6.756;2023-01-26T21:41:30;86489.53;;;-8.12;74.87
60049;BME280;66154;45.544;6.756;2023-01-26T21:47:00;86485.66;;;-7.91;75.31
60049;BME280;66154;45.544;6.756;2023-01-26T21:52:02;86489.22;;;-8.27;76.96
60049;BME280;66154;45.544;6.756;2023-01-26T21:57:22;86484.44;;;-8.41;78.01
60049;BME280;66154;45.544;6.756;2023-01-26T22:02:41;86474.28;;;-7.98;75.08
60049;BME280;66154;45.544;6.756;2023-01-26T22:07:41;86459.75;;;-7.90;75.19
60049;BME280;66154;45.544;6.756;2023-01-26T22:12:42;86463.78;;;-8.01;74.84
60049;BME280;66154;45.544;6.756;2023-01-26T22:17:42;86469.03;;;-7.85;74.91
60049;BME280;66154;45.544;6.756;2023-01-26T22:22:43;86463.66;;;-7.94;74.89
60049;BME280;66154;45.544;6.756;2023-01-26T22:27:44;86463.41;;;-8.21;73.49
60049;BME280;66154;45.544;6.756;2023-01-26T22:32:44;86446.84;;;-7.98;72.77
60049;BME280;66154;45.544;6.756;2023-01-26T22:37:45;86449.78;;;-8.02;72.45
60049;BME280;66154;45.544;6.756;2023-01-26T22:42:45;86438.72;;;-8.06;73.17
60049;BME280;66154;45.544;6.756;2023-01-26T22:47:47;86444.28;;;-8.04;73.68
60049;BME280;66154;45.544;6.756;2023-01-26T22:52:48;86444.00;;;-8.31;73.93
60049;BME280;66154;45.544;6.756;2023-01-26T22:57:48;86449.97;;;-8.32;74.68
60049;BME280;66154;45.544;6.756;2023-01-26T23:02:49;86436.91;;;-8.51;75.17
60049;BME280;66154;45.544;6.756;2023-01-26T23:07:49;86430.38;;;-8.40;75.97
60049;BME280;66154;45.544;6.756;2023-01-26T23:12:50;86434.03;;;-8.31;74.26
60049;BME280;66154;45.544;6.756;2023-01-26T23:17:51;86438.06;;;-8.42;73.77
60049;BME280;66154;45.544;6.756;2023-01-26T23:22:51;86432.72;;;-8.33;72.81
60049;BME280;66154;45.544;6.756;2023-01-26T23:27:52;86430.59;;;-8.42;72.83
60049;BME280;66154;45.544;6.756;2023-01-26T23:32:53;86432.28;;;-9.06;78.40
60049;BME280;66154;45.544;6.756;2023-01-26T23:37:53;86432.19;;;-9.00;71.13
60049;BME280;66154;45.544;6.756;2023-01-26T23:42:54;86436.59;;;-8.54;71.27
60049;BME280;66154;45.544;6.756;2023-01-26T23:47:54;86435.75;;;-8.31;72.19
60049;BME280;66154;45.544;6.756;2023-01-26T23:52:55;86436.19;;;-8.34;74.20
60049;BME280;66154;45.544;6.756;2023-01-26T23:57:55;86432.91;;;-8.76;77.71
